createdAt,value
2023-02-05T00:02:17.505Z,101198.31
2023-02-05T00:04:45.421Z,101190.94
2023-02-05T00:07:13.349Z,101182.25
2023-02-05T00:09:42.623Z,101181.66
2023-02-05T00:12:10.571Z,101188.72
2023-02-05T00:14:38.477Z,101184.69
2023-02-05T00:17:06.364Z,101180.38
2023-02-05T00:19:34.228Z,101167.59
2023-02-05T00:22:02.071Z,101179.16
2023-02-05T00:24:29.944Z,101211.53
2023-02-05T00:26:59.085Z,101221.34
2023-02-05T00:29:26.905Z,101218.75
2023-02-05T00:31:54.896Z,101220.50
2023-02-05T00:34:22.770Z,101223.38
2023-02-05T00:36:50.701Z,101226.84
2023-02-05T00:39:19.104Z,101230.88
2023-02-05T00:41:48.335Z,101235.63
2023-02-05T00:44:17.661Z,101246.47
2023-02-05T00:46:45.661Z,101245.00
2023-02-05T00:49:13.549Z,101239.81
2023-02-05T00:51:41.486Z,101251.09
2023-02-05T00:54:09.323Z,101245.88
2023-02-05T00:56:37.236Z,101246.63
2023-02-05T00:59:05.708Z,101243.28
2023-02-05T01:01:34.948Z,101236.91
2023-02-05T01:04:02.831Z,101249.91
2023-02-05T01:06:30.722Z,101243.28
2023-02-05T01:08:58.621Z,101242.44
2023-02-05T01:11:26.691Z,101235.19
2023-02-05T01:13:54.624Z,101231.28
2023-02-05T01:16:22.559Z,101252.25
2023-02-05T01:18:52.853Z,101249.34
2023-02-05T01:21:20.717Z,101248.06
2023-02-05T01:23:48.561Z,101259.78
2023-02-05T01:26:16.516Z,101259.22
2023-02-05T01:28:45.991Z,101256.03
2023-02-05T01:31:14.022Z,101258.66
2023-02-05T01:33:41.875Z,101253.28
2023-02-05T01:36:11.489Z,101239.53
2023-02-05T01:38:39.431Z,101257.03
2023-02-05T01:41:09.150Z,101245.88
2023-02-05T01:43:37.138Z,101259.16
2023-02-05T01:46:15.637Z,101249.06
2023-02-05T01:48:47.629Z,101248.94
2023-02-05T01:51:17.749Z,101239.81
2023-02-05T01:53:49.340Z,101253.13
2023-02-05T01:56:22.333Z,101251.94
2023-02-05T01:58:54.706Z,101259.16
2023-02-05T02:01:23.277Z,101263.91
2023-02-05T02:03:54.566Z,101268.38
2023-02-05T02:06:23.846Z,101283.66
2023-02-05T02:08:51.773Z,101267.19
2023-02-05T02:11:22.848Z,101280.16
2023-02-05T02:13:53.937Z,101265.28
2023-02-05T02:16:22.569Z,101280.16
2023-02-05T02:18:51.032Z,101277.44
2023-02-05T02:21:46.269Z,101274.94
2023-02-05T02:24:44.048Z,101279.78
2023-02-05T02:27:43.455Z,101284.41
2023-02-05T02:30:18.371Z,101280.63
2023-02-05T02:32:52.935Z,101286.94
2023-02-05T02:35:28.487Z,101273.50
2023-02-05T02:38:02.409Z,101293.75
2023-02-05T02:40:37.046Z,101281.34
2023-02-05T02:43:11.309Z,101290.44
2023-02-05T02:45:44.926Z,101288.38
2023-02-05T02:48:16.086Z,101289.81
2023-02-05T02:50:48.809Z,101278.22
2023-02-05T02:53:20.306Z,101290.94
2023-02-05T02:55:50.261Z,101294.13
2023-02-05T02:58:26.184Z,101303.94
2023-02-05T03:00:56.531Z,101294.13
2023-02-05T03:03:27.192Z,101302.03
2023-02-05T03:05:59.293Z,101305.34
2023-02-05T03:08:31.994Z,101301.47
2023-02-05T03:11:03.649Z,101303.94
2023-02-05T03:13:33.687Z,101312.59
2023-02-05T03:16:03.682Z,101323.34
2023-02-05T03:18:32.392Z,101313.41
2023-02-05T03:21:04.634Z,101314.75
2023-02-05T03:23:33.483Z,101313.88
2023-02-05T03:26:01.508Z,101303.03
2023-02-05T03:28:45.872Z,101315.38
2023-02-05T03:31:21.865Z,101316.72
2023-02-05T03:34:02.668Z,101311.69
2023-02-05T03:36:44.284Z,101319.75
2023-02-05T03:39:25.569Z,101312.22
2023-02-05T03:42:08.781Z,101312.78
2023-02-05T03:45:05.765Z,101311.19
2023-02-05T03:47:50.298Z,101310.00
2023-02-05T03:50:25.162Z,101315.31
2023-02-05T03:53:07.702Z,101313.41
2023-02-05T03:55:42.110Z,101312.69
2023-02-05T03:58:15.372Z,101311.28
2023-02-05T04:00:45.655Z,101311.28
2023-02-05T04:03:16.015Z,101310.69
2023-02-05T04:05:44.222Z,101316.19
2023-02-05T04:08:13.210Z,101309.38
2023-02-05T04:10:46.212Z,101293.59
2023-02-05T04:13:14.425Z,101322.53
2023-02-05T04:15:45.609Z,101319.34
2023-02-05T04:18:16.796Z,101323.16
2023-02-05T04:20:46.485Z,101327.19
2023-02-05T04:23:17.036Z,101334.69
2023-02-05T04:25:46.010Z,101333.28
2023-02-05T04:28:18.786Z,101344.28
2023-02-05T04:30:48.427Z,101337.34
2023-02-05T04:33:17.246Z,101341.25
2023-02-05T04:35:45.369Z,101344.28
2023-02-05T04:38:14.023Z,101340.47
2023-02-05T04:40:42.086Z,101340.41
2023-02-05T04:43:09.946Z,101344.72
2023-02-05T04:45:37.877Z,101345.50
2023-02-05T04:48:07.433Z,101352.41
2023-02-05T04:50:35.354Z,101364.94
2023-02-05T04:53:03.301Z,101364.63
2023-02-05T04:55:31.676Z,101361.22
2023-02-05T04:58:00.187Z,101358.91
2023-02-05T05:00:28.245Z,101372.47
2023-02-05T05:02:56.074Z,101365.50
2023-02-05T05:05:25.257Z,101371.84
2023-02-05T05:07:53.200Z,101363.06
2023-02-05T05:10:21.236Z,101361.88
2023-02-05T05:12:49.013Z,101363.44
2023-02-05T05:15:16.910Z,101368.91
2023-02-05T05:17:44.723Z,101364.53
2023-02-05T05:20:12.885Z,101373.47
2023-02-05T05:22:42.098Z,101368.97
2023-02-05T05:25:10.359Z,101368.25
2023-02-05T05:27:38.160Z,101372.28
2023-02-05T05:30:06.767Z,101373.16
2023-02-05T05:32:34.656Z,101373.47
2023-02-05T05:35:02.578Z,101379.56
2023-02-05T05:37:30.409Z,101391.84
2023-02-05T05:40:16.998Z,101393.25
2023-02-05T05:43:02.303Z,101393.25
2023-02-05T05:45:30.441Z,101397.44
2023-02-05T05:47:58.351Z,101404.09
2023-02-05T05:50:26.197Z,101406.38
2023-02-05T05:52:54.042Z,101417.38
2023-02-05T05:55:23.296Z,101423.38
2023-02-05T05:57:51.130Z,101426.22
2023-02-05T06:00:19.738Z,101431.06
2023-02-05T06:02:47.651Z,101428.75
2023-02-05T06:05:15.602Z,101427.72
2023-02-05T06:07:43.409Z,101431.94
2023-02-05T06:10:11.376Z,101435.25
2023-02-05T06:12:40.572Z,101438.19
2023-02-05T06:15:09.129Z,101439.44
2023-02-05T06:17:37.059Z,101436.81
2023-02-05T06:20:05.603Z,101442.06
2023-02-05T06:22:33.576Z,101439.19
2023-02-05T06:25:02.213Z,101428.28
2023-02-05T06:27:30.063Z,101435.66
2023-02-05T06:29:59.389Z,101429.38
2023-02-05T06:32:27.262Z,101429.09
2023-02-05T06:34:55.067Z,101427.72
2023-02-05T06:37:34.212Z,101434.75
2023-02-05T06:40:15.699Z,101432.47
2023-02-05T06:42:43.821Z,101445.75
2023-02-05T06:45:13.054Z,101449.56
2023-02-05T06:47:40.985Z,101450.44
2023-02-05T06:50:09.677Z,101448.28
2023-02-05T06:52:37.780Z,101457.72
2023-02-05T06:55:06.275Z,101444.41
2023-02-05T06:57:34.309Z,101456.84
2023-02-05T07:00:02.210Z,101459.44
2023-02-05T07:02:31.838Z,101456.28
2023-02-05T07:04:59.718Z,101456.63
2023-02-05T07:07:28.243Z,101448.78
2023-02-05T07:09:56.172Z,101460.09
2023-02-05T07:12:24.125Z,101458.38
2023-02-05T07:14:51.961Z,101461.84
2023-02-05T07:17:20.872Z,101476.88
2023-02-05T07:19:50.152Z,101473.16
2023-02-05T07:22:17.996Z,101475.38
2023-02-05T07:24:45.833Z,101462.56
2023-02-05T07:27:13.661Z,101465.50
2023-02-05T07:29:41.549Z,101464.78
2023-02-05T07:32:09.605Z,101459.63
2023-02-05T07:34:37.823Z,101454.28
2023-02-05T07:37:07.103Z,101465.88
2023-02-05T07:39:34.937Z,101472.00
2023-02-05T07:42:02.811Z,101475.47
2023-02-05T07:44:38.641Z,101474.06
2023-02-05T07:47:06.706Z,101479.28
2023-02-05T07:49:34.586Z,101474.66
2023-02-05T07:52:02.534Z,101477.44
2023-02-05T07:54:31.788Z,101475.84
2023-02-05T07:57:00.639Z,101468.81
2023-02-05T07:59:28.942Z,101465.09
2023-02-05T08:01:56.762Z,101463.97
2023-02-05T08:04:24.685Z,101462.53
2023-02-05T08:06:52.618Z,101470.03
2023-02-05T08:09:20.450Z,101474.25
2023-02-05T08:11:49.621Z,101475.13
2023-02-05T08:14:17.506Z,101468.78
2023-02-05T08:16:45.324Z,101476.63
2023-02-05T08:19:16.175Z,101477.34
2023-02-05T08:21:44.390Z,101479.25
2023-02-05T08:24:12.700Z,101487.06
2023-02-05T08:26:40.687Z,101479.88
2023-02-05T08:29:10.423Z,101481.56
2023-02-05T08:31:38.787Z,101478.72
2023-02-05T08:34:06.716Z,101480.16
2023-02-05T08:36:34.560Z,101475.25
2023-02-05T08:39:02.438Z,101472.94
2023-02-05T08:41:30.249Z,101475.72
2023-02-05T08:43:58.211Z,101477.78
2023-02-05T08:46:33.897Z,101472.16
2023-02-05T08:49:11.677Z,101474.91
2023-02-05T08:51:39.602Z,101477.94
2023-02-05T08:54:12.974Z,101481.41
2023-02-05T08:56:41.207Z,101482.13
2023-02-05T08:59:09.455Z,101479.69
2023-02-05T09:01:40.905Z,101475.16
2023-02-05T09:04:09.393Z,101477.69
2023-02-05T09:06:37.229Z,101470.44
2023-02-05T09:09:05.164Z,101455.34
2023-02-05T09:11:33.002Z,101476.53
2023-02-05T09:14:00.997Z,101475.44
2023-02-05T09:16:29.934Z,101482.94
2023-02-05T09:19:00.927Z,101489.59
2023-02-05T09:21:29.122Z,101490.63
2023-02-05T09:23:58.219Z,101480.81
2023-02-05T09:26:26.222Z,101484.28
2023-02-05T09:28:54.269Z,101486.75
2023-02-05T09:31:23.469Z,101481.25
2023-02-05T09:33:51.447Z,101492.25
2023-02-05T09:36:22.906Z,101502.09
2023-02-05T09:39:01.986Z,101491.38
2023-02-05T09:41:38.097Z,101501.38
2023-02-05T09:44:14.354Z,101493.59
2023-02-05T09:46:50.071Z,101485.03
2023-02-05T09:49:20.582Z,101480.69
2023-02-05T09:51:54.011Z,101479.66
2023-02-05T09:54:26.128Z,101483.84
2023-02-05T09:56:56.753Z,101465.75
2023-02-05T09:59:26.884Z,101473.00
2023-02-05T10:01:58.684Z,101472.03
2023-02-05T10:04:27.425Z,101484.47
2023-02-05T10:07:17.660Z,101475.28
2023-02-05T10:09:59.844Z,101461.41
2023-02-05T10:12:42.628Z,101476.09
2023-02-05T10:15:23.638Z,101465.69
2023-02-05T10:18:05.470Z,101463.09
2023-02-05T10:20:53.279Z,101459.56
2023-02-05T10:23:40.422Z,101463.94
2023-02-05T10:26:12.053Z,101458.63
2023-02-05T10:29:18.000Z,101456.31
2023-02-05T10:31:56.566Z,101448.09
2023-02-05T10:34:38.418Z,101447.22
2023-02-05T10:37:11.402Z,101438.25
2023-02-05T10:39:40.826Z,101435.38
2023-02-05T10:42:27.642Z,101442.91
2023-02-05T10:45:04.522Z,101433.38
2023-02-05T10:47:50.721Z,101433.94
2023-02-05T10:50:25.644Z,101422.50
2023-02-05T10:52:53.753Z,101420.34
2023-02-05T10:55:23.035Z,101421.22
2023-02-05T10:57:51.051Z,101408.84
2023-02-05T11:00:21.489Z,101412.63
2023-02-05T11:02:52.070Z,101379.88
2023-02-05T11:05:25.562Z,101419.13
2023-02-05T11:07:54.865Z,101400.19
2023-02-05T11:10:26.797Z,101408.13
2023-02-05T11:12:57.517Z,101406.56
2023-02-05T11:15:28.745Z,101403.97
2023-02-05T11:18:00.186Z,101408.72
2023-02-05T11:20:33.908Z,101399.63
2023-02-05T11:23:15.312Z,101402.78
2023-02-05T11:25:52.761Z,101397.88
2023-02-05T11:28:25.036Z,101401.34
2023-02-05T11:30:53.482Z,101399.19
2023-02-05T11:33:32.409Z,101409.19
2023-02-05T11:36:04.067Z,101393.00
2023-02-05T11:38:36.285Z,101370.22
2023-02-05T11:41:09.325Z,101385.00
2023-02-05T11:43:39.806Z,101381.69
2023-02-05T11:46:10.682Z,101374.63
2023-02-05T11:48:41.956Z,101375.94
2023-02-05T11:51:12.765Z,101379.13
2023-02-05T11:53:55.147Z,101379.38
2023-02-05T11:56:26.278Z,101385.78
2023-02-05T11:59:00.884Z,101386.03
2023-02-05T12:01:33.766Z,101358.84
2023-02-05T12:04:03.220Z,101391.84
2023-02-05T12:06:36.418Z,101389.25
2023-02-05T12:09:04.646Z,101382.84
2023-02-05T12:12:03.856Z,101372.47
2023-02-05T12:14:42.947Z,101379.97
2023-02-05T12:17:33.335Z,101375.97
2023-02-05T12:20:11.131Z,101370.59
2023-02-05T12:22:56.474Z,101377.53
2023-02-05T12:25:29.908Z,101373.03
2023-02-05T12:28:13.466Z,101336.84
2023-02-05T12:30:52.431Z,101362.75
2023-02-05T12:33:37.434Z,101366.25
2023-02-05T12:36:22.970Z,101358.03
2023-02-05T12:39:00.885Z,101368.88
2023-02-05T12:41:37.628Z,101363.97
2023-02-05T12:44:16.789Z,101366.97
2023-02-05T12:46:56.214Z,101363.06
2023-02-05T12:49:43.483Z,101370.03
2023-02-05T12:52:31.855Z,101356.28
2023-02-05T12:55:18.538Z,101362.06
2023-02-05T12:57:51.810Z,101364.09
2023-02-05T13:00:25.646Z,101353.66
2023-02-05T13:03:01.784Z,101349.59
2023-02-05T13:05:34.170Z,101345.53
2023-02-05T13:08:06.844Z,101348.41
2023-02-05T13:10:43.037Z,101349.28
2023-02-05T13:13:15.598Z,101349.56
2023-02-05T13:15:49.332Z,101342.28
2023-02-05T13:18:22.620Z,101356.50
2023-02-05T13:21:13.562Z,101349.25
2023-02-05T13:24:02.018Z,101355.63
2023-02-05T13:26:51.478Z,101367.88
2023-02-05T13:29:22.821Z,101356.44
2023-02-05T13:31:56.992Z,101358.16
2023-02-05T13:34:26.028Z,101360.72
2023-02-05T13:37:18.275Z,101363.03
2023-02-05T13:40:11.733Z,101365.38
2023-02-05T13:43:28.416Z,101361.94
2023-02-05T13:46:19.166Z,101363.66
2023-02-05T13:49:16.885Z,101361.72
2023-02-05T13:52:11.577Z,101353.81
2023-02-05T13:55:08.665Z,101349.41
2023-02-05T13:58:09.362Z,101360.88
2023-02-05T14:00:39.343Z,101356.06
2023-02-05T14:03:09.605Z,101331.50
2023-02-05T14:05:40.375Z,101357.47
2023-02-05T14:08:23.102Z,101354.41
2023-02-05T14:11:00.242Z,101345.88
2023-02-05T14:13:32.676Z,101350.78
2023-02-05T14:16:33.621Z,101351.72
2023-02-05T14:19:17.510Z,101348.31
2023-02-05T14:22:03.257Z,101349.06
2023-02-05T14:24:50.034Z,101343.88
2023-02-05T14:27:43.132Z,101343.69
2023-02-05T14:30:49.583Z,101345.00
2023-02-05T14:33:38.433Z,101330.69
2023-02-05T14:36:36.218Z,101352.28
2023-02-05T14:39:07.306Z,101352.34
2023-02-05T14:41:50.733Z,101358.84
2023-02-05T14:44:22.439Z,101356.84
2023-02-05T14:47:05.608Z,101345.25
2023-02-05T14:49:42.563Z,101331.56
2023-02-05T14:52:26.820Z,101350.25
2023-02-05T14:55:00.125Z,101357.31
2023-02-05T14:57:39.600Z,101336.06
2023-02-05T15:00:22.796Z,101345.03
2023-02-05T15:03:21.699Z,101353.72
2023-02-05T15:05:54.260Z,101352.28
2023-02-05T15:08:28.407Z,101351.13
2023-02-05T15:11:05.840Z,101349.13
2023-02-05T15:13:35.512Z,101354.06
2023-02-05T15:16:22.192Z,101359.00
2023-02-05T15:18:52.812Z,101344.25
2023-02-05T15:21:28.097Z,101361.94
2023-02-05T15:24:02.203Z,101372.97
2023-02-05T15:26:42.836Z,101368.81
2023-02-05T15:29:17.559Z,101354.66
2023-02-05T15:31:49.382Z,101358.28
2023-02-05T15:34:29.574Z,101371.31
2023-02-05T15:37:04.097Z,101370.03
2023-02-05T15:39:41.038Z,101374.34
2023-02-05T15:42:16.696Z,101378.84
2023-02-05T15:44:46.287Z,101379.84
2023-02-05T15:47:20.277Z,101379.19
2023-02-05T15:49:51.643Z,101386.97
2023-02-05T15:52:23.009Z,101390.28
2023-02-05T15:54:52.901Z,101364.31
2023-02-05T15:57:23.880Z,101386.91
2023-02-05T15:59:55.178Z,101376.84
2023-02-05T16:02:25.940Z,101387.53
2023-02-05T16:04:57.407Z,101391.66
2023-02-05T16:07:26.812Z,101391.19
2023-02-05T16:09:57.116Z,101379.84
2023-02-05T16:12:25.794Z,101400.13
2023-02-05T16:15:02.910Z,101397.50
2023-02-05T16:17:38.979Z,101402.50
2023-02-05T16:20:29.192Z,101413.03
2023-02-05T16:23:00.687Z,101418.81
2023-02-05T16:25:38.055Z,101421.44
2023-02-05T16:28:13.230Z,101423.16
2023-02-05T16:30:44.062Z,101430.94
2023-02-05T16:33:26.447Z,101424.22
2023-02-05T16:35:55.181Z,101426.22
2023-02-05T16:38:24.193Z,101432.88
2023-02-05T16:40:55.519Z,101429.06
2023-02-05T16:43:33.009Z,101435.66
2023-02-05T16:46:29.622Z,101439.69
2023-02-05T16:48:59.946Z,101442.31
2023-02-05T16:51:52.432Z,101442.88
2023-02-05T16:54:29.229Z,101441.19
2023-02-05T16:57:01.944Z,101450.84
2023-02-05T16:59:32.833Z,101435.41
2023-02-05T17:02:03.274Z,101455.84
2023-02-05T17:04:34.627Z,101450.13
2023-02-05T17:07:05.492Z,101455.59
2023-02-05T17:09:36.695Z,101457.56
2023-02-05T17:12:36.425Z,101455.53
2023-02-05T17:15:21.003Z,101456.94
2023-02-05T17:17:53.637Z,101464.53
2023-02-05T17:20:24.686Z,101468.56
2023-02-05T17:23:13.154Z,101477.31
2023-02-05T17:25:44.300Z,101478.19
2023-02-05T17:28:16.806Z,101488.38
2023-02-05T17:30:46.814Z,101483.03
2023-02-05T17:33:20.743Z,101484.44
2023-02-05T17:35:48.964Z,101492.50
2023-02-05T17:38:17.842Z,101496.91
2023-02-05T17:40:45.726Z,101491.50
2023-02-05T17:43:13.742Z,101486.28
2023-02-05T17:45:44.124Z,101490.88
2023-02-05T17:48:12.657Z,101492.31
2023-02-05T17:50:42.006Z,101493.72
2023-02-05T17:53:13.992Z,101503.03
2023-02-05T17:55:41.888Z,101499.53
2023-02-05T17:58:09.785Z,101507.75
2023-02-05T18:00:37.663Z,101499.19
2023-02-05T18:03:05.583Z,101498.56
2023-02-05T18:05:34.133Z,101500.84
2023-02-05T18:08:03.593Z,101504.72
2023-02-05T18:10:32.687Z,101504.72
2023-02-05T18:13:00.746Z,101515.59
2023-02-05T18:15:29.538Z,101519.06
2023-02-05T18:17:57.704Z,101522.22
2023-02-05T18:20:25.630Z,101525.56
2023-02-05T18:22:53.613Z,101531.16
2023-02-05T18:25:22.808Z,101537.13
2023-02-05T18:27:50.700Z,101537.03
2023-02-05T18:30:18.953Z,101532.13
2023-02-05T18:32:46.920Z,101534.94
2023-02-05T18:35:15.434Z,101537.75
2023-02-05T18:37:43.886Z,101535.69
2023-02-05T18:40:13.619Z,101538.50
2023-02-05T18:42:46.928Z,101539.03
2023-02-05T18:45:14.869Z,101537.31
2023-02-05T18:47:42.754Z,101536.44
2023-02-05T18:50:10.929Z,101551.13
2023-02-05T18:52:38.871Z,101547.97
2023-02-05T18:55:07.790Z,101550.41
2023-02-05T18:57:35.680Z,101542.91
2023-02-05T19:00:05.812Z,101545.88
2023-02-05T19:02:35.171Z,101545.88
2023-02-05T19:05:03.320Z,101545.00
2023-02-05T19:07:31.228Z,101556.22
2023-02-05T19:09:59.389Z,101556.44
2023-02-05T19:12:27.316Z,101568.66
2023-02-05T19:14:55.220Z,101566.91
2023-02-05T19:17:27.296Z,101564.84
2023-02-05T19:19:55.688Z,101556.28
2023-02-05T19:22:23.543Z,101551.91
2023-02-05T19:24:51.515Z,101549.28
2023-02-05T19:27:19.734Z,101549.81
2023-02-05T19:29:47.876Z,101551.94
2023-02-05T19:32:15.798Z,101549.69
2023-02-05T19:34:46.493Z,101557.56
2023-02-05T19:37:14.420Z,101560.53
2023-02-05T19:39:42.245Z,101552.16
2023-02-05T19:42:10.140Z,101551.28
2023-02-05T19:44:38.080Z,101550.63
2023-02-05T19:47:09.895Z,101545.03
2023-02-05T19:49:37.775Z,101560.06
2023-02-05T19:52:08.447Z,101559.00
2023-02-05T19:54:36.450Z,101563.56
2023-02-05T19:57:04.630Z,101564.25
2023-02-05T19:59:32.502Z,101571.41
2023-02-05T20:02:00.466Z,101570.19
2023-02-05T20:04:30.038Z,101559.34
2023-02-05T20:06:59.836Z,101560.97
2023-02-05T20:09:31.808Z,101560.09
2023-02-05T20:11:59.718Z,101557.13
2023-02-05T20:14:27.569Z,101553.09
2023-02-05T20:16:55.449Z,101554.84
2023-02-05T20:19:23.334Z,101559.75
2023-02-05T20:21:52.265Z,101562.19
2023-02-05T20:24:20.107Z,101572.31
2023-02-05T20:26:49.363Z,101573.72
2023-02-05T20:29:35.166Z,101579.66
2023-02-05T20:32:03.048Z,101585.06
2023-02-05T20:34:34.032Z,101596.41
2023-02-05T20:37:06.270Z,101592.56
2023-02-05T20:39:38.507Z,101597.09
2023-02-05T20:42:07.944Z,101604.78
2023-02-05T20:44:36.989Z,101596.72
2023-02-05T20:47:07.279Z,101598.09
2023-02-05T20:49:35.741Z,101585.53
2023-02-05T20:52:03.746Z,101597.38
2023-02-05T20:54:31.679Z,101601.19
2023-02-05T20:57:00.061Z,101594.56
2023-02-05T20:59:31.398Z,101599.47
2023-02-05T21:01:59.413Z,101611.88
2023-02-05T21:04:28.267Z,101607.91
2023-02-05T21:06:56.173Z,101618.38
2023-02-05T21:09:24.210Z,101602.66
2023-02-05T21:11:55.267Z,101619.78
2023-02-05T21:14:23.670Z,101614.88
2023-02-05T21:16:52.867Z,101618.03
2023-02-05T21:19:20.909Z,101603.00
2023-02-05T21:21:49.759Z,101611.06
2023-02-05T21:24:18.085Z,101617.00
2023-02-05T21:26:47.609Z,101622.97
2023-02-05T21:29:17.640Z,101620.84
2023-02-05T21:31:48.093Z,101627.50
2023-02-05T21:34:21.638Z,101617.22
2023-02-05T21:36:50.241Z,101646.41
2023-02-05T21:39:20.144Z,101621.41
2023-02-05T21:41:50.415Z,101640.78
2023-02-05T21:44:18.468Z,101650.22
2023-02-05T21:46:46.431Z,101670.47
2023-02-05T21:49:14.497Z,101670.16
2023-02-05T21:51:43.764Z,101676.06
2023-02-05T21:54:12.581Z,101680.59
2023-02-05T21:56:43.228Z,101677.81
2023-02-05T21:59:11.657Z,101677.13
2023-02-05T22:01:40.177Z,101665.63
2023-02-05T22:04:10.453Z,101691.81
2023-02-05T22:06:38.659Z,101686.91
2023-02-05T22:09:09.893Z,101692.50
2023-02-05T22:11:39.297Z,101691.78
2023-02-05T22:14:08.706Z,101691.09
2023-02-05T22:16:37.637Z,101687.06
2023-02-05T22:19:06.335Z,101687.94
2023-02-05T22:21:36.712Z,101700.88
2023-02-05T22:24:05.950Z,101694.44
2023-02-05T22:26:37.391Z,101702.66
2023-02-05T22:29:07.381Z,101703.69
2023-02-05T22:31:36.210Z,101699.50
2023-02-05T22:34:04.289Z,101695.81
2023-02-05T22:36:33.778Z,101688.31
2023-02-05T22:39:02.685Z,101694.25
2023-02-05T22:41:33.526Z,101696.34
2023-02-05T22:44:03.993Z,101707.88
2023-02-05T22:46:33.956Z,101706.13
2023-02-05T22:49:03.531Z,101706.13
2023-02-05T22:51:33.774Z,101713.28
2023-02-05T22:54:02.020Z,101701.94
2023-02-05T22:56:30.060Z,101705.06
2023-02-05T22:58:59.729Z,101699.66
2023-02-05T23:01:33.060Z,101711.34
2023-02-05T23:04:08.510Z,101723.75
2023-02-05T23:06:38.405Z,101718.84
2023-02-05T23:09:08.772Z,101707.19
2023-02-05T23:11:37.283Z,101710.66
2023-02-05T23:14:06.602Z,101720.44
2023-02-05T23:16:37.964Z,101712.03
2023-02-05T23:19:09.808Z,101708.03
2023-02-05T23:21:38.757Z,101707.16
2023-02-05T23:24:07.109Z,101707.16
2023-02-05T23:26:38.478Z,101706.78
2023-02-05T23:29:06.474Z,101707.84
2023-02-05T23:31:35.843Z,101710.66
2023-02-05T23:34:04.059Z,101711.00
2023-02-05T23:36:32.020Z,101717.97
2023-02-05T23:38:59.983Z,101725.31
2023-02-05T23:41:39.739Z,101728.75
2023-02-05T23:44:12.621Z,101723.09
2023-02-05T23:46:43.129Z,101718.19
2023-02-05T23:49:12.024Z,101718.38
2023-02-05T23:51:40.153Z,101722.38
2023-02-05T23:54:09.598Z,101716.63
2023-02-05T23:56:37.515Z,101718.00
2023-02-05T23:59:06.640Z,101723.78
